createdAt,value
2022-08-09T00:00:29.911Z,18.50
2022-08-09T00:03:56.927Z,19.00
2022-08-09T00:06:17.602Z,18.50
2022-08-09T00:09:00.990Z,18.50
2022-08-09T00:11:58.690Z,18.50
2022-08-09T00:14:38.880Z,18.50
2022-08-09T00:18:10.379Z,18.50
2022-08-09T00:20:15.815Z,18.50
2022-08-09T00:22:53.996Z,18.50
2022-08-09T00:25:32.911Z,18.50
2022-08-09T00:28:11.288Z,18.50
2022-08-09T00:30:51.699Z,18.00
2022-08-09T00:33:32.600Z,18.50
2022-08-09T00:36:27.166Z,18.50
2022-08-09T00:39:16.874Z,18.50
2022-08-09T00:44:11.856Z,18.50
2022-08-09T00:45:15.828Z,18.50
2022-08-09T00:47:55.333Z,18.00
2022-08-09T00:50:34.228Z,18.00
2022-08-09T00:53:17.196Z,18.00
2022-08-09T00:56:09.379Z,18.00
2022-08-09T00:58:50.705Z,18.00
2022-08-09T01:01:44.403Z,18.00
2022-08-09T01:04:44.133Z,18.00
2022-08-09T01:08:01.300Z,18.00
2022-08-09T01:10:58.849Z,18.00
2022-08-09T01:14:04.854Z,17.50
2022-08-09T01:16:49.222Z,18.00
2022-08-09T01:20:02.130Z,17.50
2022-08-09T01:22:58.094Z,18.00
2022-08-09T01:26:20.123Z,17.50
2022-08-09T01:29:00.830Z,18.00
2022-08-09T01:32:31.529Z,17.50
2022-08-09T01:34:45.017Z,17.50
2022-08-09T01:37:43.128Z,17.50
2022-08-09T01:40:31.296Z,18.00
2022-08-09T01:43:11.496Z,18.00
2022-08-09T01:45:51.820Z,17.50
2022-08-09T01:48:31.407Z,17.50
2022-08-09T01:51:11.096Z,17.50
2022-08-09T01:54:04.354Z,17.50
2022-08-09T01:56:47.083Z,17.50
2022-08-09T01:59:32.382Z,17.50
2022-08-09T02:02:15.357Z,17.00
2022-08-09T02:05:00.361Z,17.50
2022-08-09T02:08:40.946Z,17.50
2022-08-09T02:10:52.588Z,17.50
2022-08-09T02:13:40.276Z,17.00
2022-08-09T02:16:19.043Z,17.00
2022-08-09T02:19:12.547Z,17.50
2022-08-09T02:21:58.699Z,17.50
2022-08-09T02:24:42.025Z,17.50
2022-08-09T02:27:57.786Z,17.50
2022-08-09T02:30:35.869Z,17.50
2022-08-09T02:33:38.444Z,17.50
2022-08-09T02:36:41.961Z,17.50
2022-08-09T02:39:33.922Z,18.00
2022-08-09T02:42:31.156Z,17.50
2022-08-09T02:45:20.781Z,18.00
2022-08-09T02:48:12.208Z,18.00
2022-08-09T02:51:02.680Z,17.50
2022-08-09T02:53:53.105Z,17.50
2022-08-09T02:56:43.611Z,17.50
2022-08-09T02:59:36.344Z,17.50
2022-08-09T03:02:17.695Z,17.50
2022-08-09T03:04:57.592Z,17.50
2022-08-09T03:07:41.339Z,17.50
2022-08-09T03:10:39.215Z,17.50
2022-08-09T03:13:24.031Z,17.00
2022-08-09T03:16:06.437Z,17.00
2022-08-09T03:18:47.317Z,17.00
2022-08-09T03:21:39.634Z,17.00
2022-08-09T03:24:39.847Z,17.00
2022-08-09T03:27:21.448Z,17.00
2022-08-09T03:30:01.924Z,17.00
2022-08-09T03:32:43.175Z,17.00
2022-08-09T03:36:11.267Z,17.00
2022-08-09T03:38:29.015Z,16.50
2022-08-09T03:41:08.716Z,17.00
2022-08-09T03:44:03.624Z,17.00
2022-08-09T03:46:46.992Z,16.50
2022-08-09T03:49:32.786Z,17.00
2022-08-09T03:52:16.480Z,17.00
2022-08-09T03:54:58.621Z,16.50
2022-08-09T03:57:53.655Z,16.50
2022-08-09T04:00:35.682Z,16.50
2022-08-09T04:03:19.840Z,16.50
2022-08-09T04:06:13.823Z,16.00
2022-08-09T04:08:53.562Z,16.00
2022-08-09T04:12:06.759Z,15.50
2022-08-09T04:15:01.077Z,15.50
2022-08-09T04:17:43.586Z,15.50
2022-08-09T04:20:21.852Z,16.00
2022-08-09T04:23:01.918Z,16.50
2022-08-09T04:25:40.246Z,16.00
2022-08-09T04:28:30.597Z,16.00
2022-08-09T04:31:14.125Z,16.00
2022-08-09T04:33:57.002Z,16.00
2022-08-09T04:36:40.372Z,16.00
2022-08-09T04:39:31.239Z,16.00
2022-08-09T04:42:09.650Z,16.50
2022-08-09T04:44:57.630Z,16.00
2022-08-09T04:47:45.236Z,16.00
2022-08-09T04:50:34.992Z,16.00
2022-08-09T04:53:16.303Z,16.00
2022-08-09T04:55:59.121Z,16.00
2022-08-09T04:58:37.832Z,15.50
2022-08-09T05:01:16.493Z,16.00
2022-08-09T05:03:58.708Z,16.00
2022-08-09T05:06:41.016Z,16.00
2022-08-09T05:09:22.369Z,16.00
2022-08-09T05:12:03.730Z,16.50
2022-08-09T05:14:42.033Z,16.50
2022-08-09T05:18:37.906Z,16.50
2022-08-09T05:20:18.579Z,16.50
2022-08-09T05:23:54.758Z,17.00
2022-08-09T05:25:56.922Z,16.50
2022-08-09T05:28:35.433Z,17.00
2022-08-09T05:31:13.649Z,16.50
2022-08-09T05:33:51.742Z,16.50
2022-08-09T05:36:30.500Z,16.50
2022-08-09T05:39:10.962Z,16.50
2022-08-09T05:41:49.235Z,16.50
2022-08-09T05:44:29.120Z,16.50
2022-08-09T05:47:10.680Z,16.50
2022-08-09T05:50:25.496Z,16.50
2022-08-09T05:52:52.191Z,16.50
2022-08-09T05:55:32.510Z,16.50
2022-08-09T05:58:10.752Z,16.50
2022-08-09T06:00:56.714Z,16.50
2022-08-09T06:03:54.425Z,16.50
2022-08-09T06:06:34.703Z,17.00
2022-08-09T06:09:23.053Z,16.50
2022-08-09T06:12:11.596Z,17.00
2022-08-09T06:14:49.972Z,17.00
2022-08-09T06:17:27.512Z,16.50
2022-08-09T06:20:18.324Z,17.00
2022-08-09T06:22:56.635Z,17.00
2022-08-09T06:25:35.031Z,17.00
2022-08-09T06:28:13.789Z,17.00
2022-08-09T06:30:51.905Z,17.00
2022-08-09T06:33:41.631Z,17.00
2022-08-09T06:36:20.305Z,17.00
2022-08-09T06:39:09.297Z,17.50
2022-08-09T06:42:09.233Z,17.50
2022-08-09T06:44:54.383Z,17.50
2022-08-09T06:47:39.751Z,17.50
2022-08-09T06:50:22.518Z,17.50
2022-08-09T06:53:01.557Z,18.00
2022-08-09T06:55:40.003Z,18.00
2022-08-09T06:58:40.681Z,18.00
2022-08-09T07:01:16.380Z,18.00
2022-08-09T07:04:00.356Z,18.00
2022-08-09T07:06:42.566Z,18.00
2022-08-09T07:09:55.093Z,18.00
2022-08-09T07:12:20.422Z,18.00
2022-08-09T07:14:58.622Z,18.00
2022-08-09T07:17:52.824Z,18.00
2022-08-09T07:20:34.681Z,18.50
2022-08-09T07:23:19.741Z,18.50
2022-08-09T07:26:02.614Z,18.50
2022-08-09T07:29:09.310Z,18.50
2022-08-09T07:31:44.980Z,18.50
2022-08-09T07:34:25.709Z,18.50
2022-08-09T07:37:04.935Z,18.50
2022-08-09T07:39:49.193Z,19.00
2022-08-09T07:42:32.674Z,19.00
2022-08-09T07:45:22.816Z,18.50
2022-08-09T07:48:25.385Z,18.50
2022-08-09T07:52:02.868Z,19.00
2022-08-09T07:54:08.652Z,19.00
2022-08-09T07:56:49.661Z,19.00
2022-08-09T07:59:34.714Z,19.00
2022-08-09T08:02:25.148Z,19.50
2022-08-09T08:05:04.929Z,19.00
2022-08-09T08:08:44.350Z,19.00
2022-08-09T08:11:15.375Z,19.50
2022-08-09T08:13:57.115Z,19.50
2022-08-09T08:16:35.652Z,20.00
2022-08-09T08:19:17.687Z,19.50
2022-08-09T08:21:55.838Z,19.50
2022-08-09T08:24:39.916Z,20.00
2022-08-09T08:27:18.977Z,20.00
2022-08-09T08:29:58.938Z,20.00
2022-08-09T08:32:52.703Z,20.50
2022-08-09T08:35:53.044Z,20.50
2022-08-09T08:38:30.500Z,20.00
2022-08-09T08:41:09.056Z,20.00
2022-08-09T08:43:51.819Z,20.50
2022-08-09T08:46:41.558Z,20.50
2022-08-09T08:49:47.901Z,20.50
2022-08-09T08:55:29.051Z,21.00
2022-08-09T08:58:11.884Z,20.50
2022-08-09T09:00:56.384Z,20.50
2022-08-09T09:03:37.527Z,20.50
2022-08-09T09:06:18.313Z,21.00
2022-08-09T09:08:59.758Z,20.50
2022-08-09T09:11:41.253Z,20.50
2022-08-09T09:14:25.839Z,20.50
2022-08-09T09:17:04.642Z,21.00
2022-08-09T09:19:44.969Z,21.00
2022-08-09T09:22:28.723Z,21.50
2022-08-09T09:26:03.127Z,21.50
2022-08-09T09:28:10.647Z,21.50
2022-08-09T09:30:57.684Z,21.00
2022-08-09T09:33:44.265Z,21.00
2022-08-09T09:36:23.204Z,20.50
2022-08-09T09:39:02.604Z,21.50
2022-08-09T09:41:49.503Z,21.50
2022-08-09T09:44:34.063Z,21.00
2022-08-09T09:47:17.043Z,21.50
2022-08-09T09:50:13.621Z,22.00
2022-08-09T09:52:56.100Z,21.50
2022-08-09T09:55:57.541Z,21.50
2022-08-09T09:58:49.729Z,21.50
2022-08-09T10:01:38.013Z,21.50
2022-08-09T10:04:30.473Z,21.50
2022-08-09T10:07:27.888Z,21.50
2022-08-09T10:10:08.858Z,22.00
2022-08-09T10:12:54.681Z,22.00
2022-08-09T10:16:09.435Z,22.00
2022-08-09T10:18:55.346Z,21.50
2022-08-09T10:21:48.721Z,21.50
2022-08-09T10:24:35.630Z,22.50
2022-08-09T10:27:17.466Z,23.00
2022-08-09T10:30:22.115Z,23.00
2022-08-09T10:33:04.656Z,22.50
2022-08-09T10:35:48.125Z,22.50
2022-08-09T10:38:33.844Z,22.00
2022-08-09T10:41:25.123Z,22.50
2022-08-09T10:44:04.237Z,22.00
2022-08-09T10:48:12.059Z,22.50
2022-08-09T10:50:20.990Z,23.00
2022-08-09T10:53:54.701Z,23.00
2022-08-09T10:56:36.823Z,23.50
2022-08-09T10:59:31.411Z,23.50
2022-08-09T11:03:13.857Z,23.50
2022-08-09T11:05:24.870Z,23.00
2022-08-09T11:08:53.417Z,23.50
2022-08-09T11:11:58.900Z,23.00
2022-08-09T11:15:13.216Z,23.00
2022-08-09T11:18:03.655Z,23.50
2022-08-09T11:20:49.665Z,24.00
2022-08-09T11:23:30.136Z,23.50
2022-08-09T11:26:52.102Z,24.00
2022-08-09T11:30:01.207Z,24.00
2022-08-09T11:33:13.843Z,23.50
2022-08-09T11:36:00.064Z,23.50
2022-08-09T11:38:41.479Z,23.50
2022-08-09T11:41:38.097Z,23.00
2022-08-09T11:44:18.582Z,23.50
2022-08-09T11:47:01.036Z,23.00
2022-08-09T11:50:54.223Z,23.50
2022-08-09T11:53:28.154Z,23.50
2022-08-09T11:56:41.454Z,24.00
2022-08-09T11:59:29.929Z,24.00
2022-08-09T12:02:16.953Z,24.00
2022-08-09T12:04:58.980Z,23.50
2022-08-09T12:07:42.241Z,23.00
2022-08-09T12:10:38.891Z,23.00
2022-08-09T12:14:07.308Z,23.00
2022-08-09T12:16:44.125Z,23.00
2022-08-09T12:19:32.956Z,23.00
2022-08-09T12:22:12.168Z,23.50
2022-08-09T12:24:51.004Z,23.50
2022-08-09T12:29:11.258Z,23.50
2022-08-09T12:30:36.561Z,24.50
2022-08-09T12:33:19.256Z,24.00
2022-08-09T12:36:27.448Z,24.50
2022-08-09T12:39:15.310Z,24.50
2022-08-09T12:41:53.474Z,24.50
2022-08-09T12:44:38.929Z,24.50
2022-08-09T12:47:22.774Z,24.50
2022-08-09T12:50:23.664Z,25.00
2022-08-09T12:53:17.422Z,24.00
2022-08-09T12:56:42.926Z,24.50
2022-08-09T12:59:22.379Z,24.50
2022-08-09T13:02:02.193Z,24.00
2022-08-09T13:04:40.455Z,24.00
2022-08-09T13:07:20.024Z,24.50
2022-08-09T13:10:11.167Z,24.50
2022-08-09T13:13:09.679Z,24.50
2022-08-09T13:16:09.045Z,24.00
2022-08-09T13:18:53.350Z,24.50
2022-08-09T13:23:00.686Z,24.00
2022-08-09T13:24:52.951Z,24.00
2022-08-09T13:27:40.202Z,24.00
2022-08-09T13:30:50.439Z,24.50
2022-08-09T13:33:35.867Z,24.50
2022-08-09T13:36:40.460Z,25.00
2022-08-09T13:41:17.395Z,25.00
2022-08-09T13:42:18.778Z,24.50
2022-08-09T13:44:56.996Z,24.50
2022-08-09T13:47:49.041Z,24.50
2022-08-09T13:50:30.339Z,24.50
2022-08-09T13:53:10.011Z,24.50
2022-08-09T13:55:49.221Z,24.00
2022-08-09T13:58:27.475Z,24.00
2022-08-09T14:01:06.842Z,24.50
2022-08-09T14:04:03.250Z,24.50
2022-08-09T14:06:46.454Z,24.00
2022-08-09T14:09:25.356Z,24.00
2022-08-09T14:12:08.784Z,25.00
2022-08-09T14:14:54.037Z,24.50
2022-08-09T14:18:06.492Z,24.50
2022-08-09T14:20:33.062Z,25.00
2022-08-09T14:23:11.228Z,25.00
2022-08-09T14:26:01.765Z,25.50
2022-08-09T14:28:44.141Z,25.50
2022-08-09T14:31:23.583Z,25.50
2022-08-09T14:34:12.628Z,25.50
2022-08-09T14:36:50.737Z,25.00
2022-08-09T14:39:45.277Z,25.00
2022-08-09T14:42:31.030Z,25.00
2022-08-09T14:46:39.900Z,25.00
2022-08-09T14:48:11.097Z,26.00
2022-08-09T14:50:52.563Z,26.00
2022-08-09T14:53:33.175Z,26.00
2022-08-09T14:56:17.147Z,25.00
2022-08-09T14:59:00.690Z,25.00
2022-08-09T15:01:39.055Z,25.00
2022-08-09T15:04:17.164Z,25.50
2022-08-09T15:06:55.304Z,25.50
2022-08-09T15:09:52.080Z,25.50
2022-08-09T15:12:33.000Z,25.50
2022-08-09T15:15:12.008Z,25.00
2022-08-09T15:17:53.342Z,25.50
2022-08-09T15:21:58.618Z,25.50
2022-08-09T15:24:02.619Z,25.50
2022-08-09T15:26:31.657Z,25.00
2022-08-09T15:29:10.131Z,25.00
2022-08-09T15:32:29.369Z,25.00
2022-08-09T15:35:18.117Z,25.50
2022-08-09T15:38:11.828Z,25.50
2022-08-09T15:40:50.388Z,25.00
2022-08-09T15:43:36.823Z,25.00
2022-08-09T15:46:32.426Z,25.00
2022-08-09T15:49:22.330Z,25.00
2022-08-09T15:52:05.154Z,25.00
2022-08-09T15:54:48.949Z,25.00
2022-08-09T15:57:35.030Z,25.00
2022-08-09T16:00:26.166Z,25.00
2022-08-09T16:03:04.831Z,25.00
2022-08-09T16:05:53.267Z,25.00
2022-08-09T16:08:33.037Z,25.00
2022-08-09T16:11:11.895Z,25.00
2022-08-09T16:14:03.551Z,25.00
2022-08-09T16:16:48.110Z,25.00
2022-08-09T16:19:26.625Z,25.50
2022-08-09T16:22:05.676Z,25.00
2022-08-09T16:24:56.894Z,25.00
2022-08-09T16:27:38.503Z,25.00
2022-08-09T16:30:25.778Z,25.00
2022-08-09T16:33:10.574Z,25.00
2022-08-09T16:35:55.692Z,25.00
2022-08-09T16:38:38.069Z,25.00
2022-08-09T16:41:19.928Z,25.00
2022-08-09T16:44:02.993Z,25.00
2022-08-09T16:46:54.929Z,25.00
2022-08-09T16:50:31.615Z,25.00
2022-08-09T16:52:38.217Z,25.00
2022-08-09T16:55:21.287Z,25.00
2022-08-09T16:58:08.998Z,25.00
2022-08-09T17:00:50.574Z,25.00
2022-08-09T17:03:30.422Z,25.00
2022-08-09T17:06:28.828Z,25.00
2022-08-09T17:09:12.152Z,25.00
2022-08-09T17:12:06.920Z,25.00
2022-08-09T17:14:46.352Z,25.00
2022-08-09T17:17:27.945Z,25.00
2022-08-09T17:20:32.429Z,25.00
2022-08-09T17:23:10.440Z,25.00
2022-08-09T17:25:53.354Z,25.00
2022-08-09T17:28:31.779Z,25.00
2022-08-09T17:31:09.881Z,25.00
2022-08-09T17:33:54.153Z,25.00
2022-08-09T17:36:32.255Z,25.00
2022-08-09T17:39:10.459Z,25.00
2022-08-09T17:41:48.558Z,25.00
2022-08-09T17:44:38.038Z,25.00
2022-08-09T17:47:17.930Z,25.00
2022-08-09T17:50:05.386Z,25.00
2022-08-09T17:52:52.421Z,25.00
2022-08-09T17:55:47.255Z,24.50
2022-08-09T17:58:28.457Z,25.00
2022-08-09T18:01:06.701Z,25.00
2022-08-09T18:03:45.290Z,24.50
2022-08-09T18:06:32.382Z,24.50
2022-08-09T18:09:10.964Z,24.50
2022-08-09T18:12:05.951Z,24.50
2022-08-09T18:14:56.526Z,24.50
2022-08-09T18:18:02.425Z,24.50
2022-08-09T18:20:54.132Z,24.50
2022-08-09T18:24:11.282Z,24.50
2022-08-09T18:26:29.520Z,24.00
2022-08-09T18:30:35.288Z,24.00
2022-08-09T18:32:08.530Z,24.00
2022-08-09T18:34:48.308Z,24.00
2022-08-09T18:37:49.161Z,23.50
2022-08-09T18:40:26.901Z,23.50
2022-08-09T18:43:05.367Z,23.50
2022-08-09T18:46:50.971Z,23.50
2022-08-09T18:48:42.686Z,23.00
2022-08-09T18:51:20.936Z,22.50
2022-08-09T18:54:20.082Z,22.50
2022-08-09T18:57:07.357Z,22.00
2022-08-09T18:59:52.469Z,22.50
2022-08-09T19:02:34.934Z,22.50
2022-08-09T19:05:19.994Z,22.50
2022-08-09T19:08:10.505Z,22.50
2022-08-09T19:10:50.730Z,22.00
2022-08-09T19:13:38.644Z,22.50
2022-08-09T19:16:36.416Z,22.00
2022-08-09T19:19:25.172Z,22.00
2022-08-09T19:22:07.135Z,22.00
2022-08-09T19:25:11.799Z,22.00
2022-08-09T19:27:45.422Z,21.50
2022-08-09T19:30:28.528Z,21.50
2022-08-09T19:33:14.345Z,21.50
2022-08-09T19:35:59.081Z,21.50
2022-08-09T19:38:39.706Z,21.50
2022-08-09T19:41:33.081Z,22.00
2022-08-09T19:44:13.670Z,21.50
2022-08-09T19:46:55.958Z,21.50
2022-08-09T19:50:09.646Z,22.00
2022-08-09T19:52:34.369Z,22.00
2022-08-09T19:55:13.217Z,22.00
2022-08-09T19:57:53.982Z,21.50
2022-08-09T20:00:33.021Z,22.00
2022-08-09T20:04:12.489Z,22.00
2022-08-09T20:06:22.726Z,21.50
2022-08-09T20:09:02.832Z,22.00
2022-08-09T20:11:45.392Z,22.00
2022-08-09T20:14:29.996Z,22.00
2022-08-09T20:17:09.254Z,21.50
2022-08-09T20:19:54.090Z,21.50
2022-08-09T20:22:35.702Z,21.50
2022-08-09T20:25:22.391Z,21.50
2022-08-09T20:28:01.500Z,21.50
2022-08-09T20:30:39.611Z,21.50
2022-08-09T20:33:18.588Z,21.50
2022-08-09T20:35:59.728Z,21.00
2022-08-09T20:41:39.119Z,21.50
2022-08-09T20:44:17.475Z,21.50
2022-08-09T20:47:05.271Z,21.50
2022-08-09T20:50:01.995Z,21.00
2022-08-09T20:52:41.226Z,20.50
2022-08-09T20:55:23.399Z,20.50
2022-08-09T20:58:19.964Z,20.50
2022-08-09T21:01:14.261Z,20.00
2022-08-09T21:05:48.878Z,20.50
2022-08-09T21:06:55.170Z,20.50
2022-08-09T21:09:45.105Z,20.50
2022-08-09T21:15:34.474Z,20.50
2022-08-09T21:18:24.502Z,20.00
2022-08-09T21:21:17.054Z,20.50
2022-08-09T21:23:59.378Z,20.50
2022-08-09T21:26:40.493Z,20.00
2022-08-09T21:29:22.636Z,20.00
2022-08-09T21:32:01.136Z,20.00
2022-08-09T21:34:49.328Z,20.00
2022-08-09T21:37:27.863Z,20.00
2022-08-09T21:40:22.013Z,20.00
2022-08-09T21:43:09.514Z,20.00
2022-08-09T21:45:47.709Z,20.00
2022-08-09T21:48:29.136Z,19.50
2022-08-09T21:51:13.342Z,20.00
2022-08-09T21:53:55.748Z,19.50
2022-08-09T21:56:44.704Z,20.00
2022-08-09T21:59:42.878Z,19.50
2022-08-09T22:02:29.754Z,20.00
2022-08-09T22:05:22.446Z,19.50
2022-08-09T22:08:01.900Z,19.50
2022-08-09T22:11:04.921Z,19.50
2022-08-09T22:13:43.443Z,19.50
2022-08-09T22:16:21.875Z,19.50
2022-08-09T22:19:01.617Z,19.50
2022-08-09T22:21:59.672Z,19.50
2022-08-09T22:24:37.804Z,19.50
2022-08-09T22:27:31.733Z,19.00
2022-08-09T22:30:14.644Z,19.00
2022-08-09T22:32:53.263Z,19.50
2022-08-09T22:36:02.591Z,19.00
2022-08-09T22:38:29.472Z,19.00
2022-08-09T22:41:07.572Z,19.00
2022-08-09T22:44:01.579Z,19.00
2022-08-09T22:48:16.602Z,19.00
2022-08-09T22:49:40.376Z,19.00
2022-08-09T22:52:19.711Z,18.50
2022-08-09T22:54:58.080Z,19.00
2022-08-09T22:57:36.496Z,19.00
2022-08-09T23:00:15.406Z,19.00
2022-08-09T23:02:53.661Z,19.00
2022-08-09T23:05:31.906Z,19.00
2022-08-09T23:08:30.219Z,19.00
2022-08-09T23:11:11.112Z,19.00
2022-08-09T23:13:52.546Z,19.00
2022-08-09T23:16:31.341Z,19.50
2022-08-09T23:19:09.454Z,19.50
2022-08-09T23:21:47.695Z,20.00
2022-08-09T23:24:25.759Z,19.50
2022-08-09T23:27:04.299Z,19.00
2022-08-09T23:29:42.486Z,19.00
2022-08-09T23:32:20.629Z,19.00
2022-08-09T23:34:58.729Z,19.00
2022-08-09T23:37:37.245Z,18.50
2022-08-09T23:40:17.098Z,19.00
2022-08-09T23:42:55.207Z,19.00
2022-08-09T23:45:36.479Z,18.50
2022-08-09T23:48:17.092Z,18.50
2022-08-09T23:50:55.176Z,19.00
2022-08-09T23:53:38.396Z,18.50
2022-08-09T23:56:16.713Z,19.00
2022-08-09T23:59:14.872Z,19.00
